Time;durP1;ratioP1;P1;durP2;ratioP2;P2;SDS_P1;SDS_P2;PMS_P1;PMS_P2;Temp;Humidity;BMP_temperature;BMP_pressure;BME280_temperature;BME280_humidity;BME280_pressure;Samples;Min_cycle;Max_cycle;Signal;HPM_P1;HPM_P2
2022/09/22 00:00:39;;;;;;;;;27.00;26.00;;;;;14.70;62.62;99280.53;6183737;28;97436;-63
2022/09/22 00:03:46;;;;;;;;;30.50;26.00;;;;;14.63;62.63;99286.09;6185247;28;97664;-59
2022/09/22 00:06:51;;;;;;;;;28.60;25.60;;;;;14.62;62.58;99278.19;6176079;28;96936;-63
2022/09/22 00:09:55;;;;;;;;;32.60;27.00;;;;;14.58;62.51;99280.56;6185888;28;97687;-62
2022/09/22 00:12:58;;;;;;;;;33.80;29.00;;;;;14.56;62.65;99288.09;6185594;28;96435;-59
2022/09/22 00:16:02;;;;;;;;;31.60;28.40;;;;;14.53;62.49;99285.84;6186535;28;97831;-68
2022/09/22 00:19:06;;;;;;;;;28.00;27.00;;;;;14.53;62.83;99290.47;6186248;28;96993;-60
2022/09/22 00:22:11;;;;;;;;;27.25;26.00;;;;;14.52;63.08;99291.50;6184681;28;98461;-64
2022/09/22 00:25:15;;;;;;;;;28.50;26.50;;;;;14.51;63.11;99287.19;6180873;28;96287;-63
2022/09/22 00:28:20;;;;;;;;;34.50;28.50;;;;;14.49;63.02;99289.28;6184218;28;96797;-62
2022/09/22 00:31:25;;;;;;;;;32.00;29.00;;;;;14.48;62.90;99293.88;6186955;28;96325;-63
2022/09/22 00:34:28;;;;;;;;;33.00;28.60;;;;;14.50;63.17;99286.34;6186430;28;96189;-68
2022/09/22 00:37:34;;;;;;;;;32.00;28.25;;;;;14.51;62.90;99287.19;6186857;28;96276;-68
2022/09/22 00:40:37;;;;;;;;;30.00;28.00;;;;;14.48;62.96;99293.88;6185578;28;96369;-59
2022/09/22 00:43:41;;;;;;;;;30.00;28.50;;;;;14.46;62.99;99293.31;6184119;28;99724;-63
2022/09/22 00:46:49;;;;;;;;;29.20;28.00;;;;;14.50;62.86;99290.94;6185404;28;98103;-69
2022/09/22 00:49:56;;;;;;;;;27.20;25.80;;;;;14.51;62.95;99287.19;6185244;28;96843;-62
2022/09/22 00:53:05;;;;;;;;;31.00;28.00;;;;;14.47;63.14;99277.84;6187675;28;96572;-60
2022/09/22 00:56:13;;;;;;;;;29.00;26.00;;;;;14.42;63.41;99281.25;6155532;28;99441;-69
2022/09/22 00:59:19;;;;;;;;;29.60;27.00;;;;;14.40;63.66;99299.69;6187374;28;99989;-61
2022/09/22 01:02:24;;;;;;;;;28.00;26.20;;;;;14.44;63.54;99292.72;6183814;28;98187;-67
2022/09/22 01:05:30;;;;;;;;;31.00;28.00;;;;;14.42;63.56;99292.13;6185995;28;96908;-62
2022/09/22 01:08:36;;;;;;;;;31.25;29.25;;;;;14.47;63.32;99297.66;6168081;28;96486;-59
2022/09/22 01:11:41;;;;;;;;;30.40;26.40;;;;;14.51;63.49;99295.31;6185211;28;96587;-62
2022/09/22 01:15:12;;;;;;;;;32.00;26.60;;;;;14.45;63.38;99282.69;6184554;28;96927;-58
2022/09/22 01:18:24;;;;;;;;;29.60;27.00;;;;;14.50;63.19;99291.78;6186024;28;98465;-61
2022/09/22 01:21:40;;;;;;;;;29.20;26.00;;;;;14.49;62.96;99292.00;6182018;28;97918;-59
2022/09/22 01:25:05;;;;;;;;;31.00;28.00;;;;;14.48;62.96;99303.91;6186087;28;96350;-65
2022/09/22 01:28:31;;;;;;;;;27.75;25.00;;;;;14.36;63.16;99297.66;6185891;28;96271;-62
2022/09/22 01:31:45;;;;;;;;;29.80;25.00;;;;;14.49;62.99;99308.28;6184615;28;96568;-60
2022/09/22 01:34:56;;;;;;;;;30.50;27.50;;;;;14.54;62.81;99308.41;6184523;28;96673;-58
2022/09/22 01:38:09;;;;;;;;;30.75;30.00;;;;;14.57;62.83;99295.16;6186013;28;96923;-62
2022/09/22 01:41:18;;;;;;;;;30.40;27.80;;;;;14.58;62.73;99293.28;6185708;28;96367;-61
2022/09/22 01:44:31;;;;;;;;;32.00;28.75;;;;;14.56;62.75;99292.72;6168424;28;98339;-58
2022/09/22 01:47:40;;;;;;;;;29.00;25.50;;;;;14.60;62.38;99288.47;6168960;28;96821;-62
2022/09/22 01:50:49;;;;;;;;;30.00;28.00;;;;;14.66;62.38;99290.22;6186554;28;96559;-68
2022/09/22 01:53:57;;;;;;;;;30.00;28.00;;;;;14.69;62.14;99297.88;6184889;28;96398;-67
2022/09/22 01:57:06;;;;;;;;;29.00;25.00;;;;;14.68;62.21;99282.66;6186059;28;96423;-60
2022/09/22 02:00:10;;;;;;;;;30.00;26.50;;;;;14.58;62.29;99285.16;6174211;28;96353;-61
2022/09/22 02:03:24;;;;;;;;;31.00;27.60;;;;;14.63;62.36;99285.25;6190510;28;96310;-61
2022/09/22 02:06:33;;;;;;;;;32.50;26.50;;;;;14.60;62.28;99277.59;6188225;28;96898;-63
2022/09/22 02:09:40;;;;;;;;;28.80;25.80;;;;;14.45;62.13;99266.41;6189702;28;97531;-62
2022/09/22 02:12:44;;;;;;;;;30.00;26.00;;;;;14.56;62.29;99276.44;6188869;28;96769;-59
2022/09/22 02:16:02;;;;;;;;;27.00;24.00;;;;;14.44;62.61;99273.72;6188523;28;97188;-62
2022/09/22 02:19:11;;;;;;;;;28.80;26.60;;;;;14.42;62.58;99272.28;6185745;28;96281;-63
2022/09/22 02:22:16;;;;;;;;;26.75;24.75;;;;;14.40;62.68;99283.41;6179450;28;96220;-62
2022/09/22 02:25:21;;;;;;;;;26.00;25.00;;;;;14.41;62.76;99276.09;6190035;28;96594;-58
2022/09/22 02:28:26;;;;;;;;;29.00;26.00;;;;;14.46;62.58;99277.03;6189408;28;96445;-61
2022/09/22 02:31:33;;;;;;;;;29.00;25.40;;;;;14.45;62.52;99277.25;6205271;28;97737;-61
2022/09/22 02:34:38;;;;;;;;;28.00;23.60;;;;;14.36;62.24;99276.81;6188507;28;98605;-69
2022/09/22 02:37:48;;;;;;;;;26.40;24.40;;;;;14.31;62.23;99279.38;6190605;28;96376;-59
2022/09/22 02:41:01;;;;;;;;;28.00;23.40;;;;;14.18;62.24;99285.00;6188421;28;96448;-68
2022/09/22 02:44:11;;;;;;;;;23.00;22.50;;;;;14.24;62.34;99284.06;6183471;28;96763;-69
2022/09/22 02:47:19;;;;;;;;;25.50;23.00;;;;;14.28;62.36;99285.25;6190457;28;96325;-69
2022/09/22 02:50:26;;;;;;;;;25.20;22.20;;;;;14.27;62.23;99284.41;6188010;28;96596;-62
2022/09/22 02:53:30;;;;;;;;;27.25;23.50;;;;;14.24;62.13;99273.22;6190522;28;96314;-64
2022/09/22 02:56:33;;;;;;;;;23.40;23.40;;;;;14.12;62.59;99275.91;6187982;28;97271;-68
2022/09/22 02:59:37;;;;;;;;;26.60;23.60;;;;;14.05;62.42;99274.41;6189848;28;97074;-63
2022/09/22 03:02:40;;;;;;;;;26.00;23.80;;;;;14.16;62.46;99279.00;6184899;28;97794;-61
2022/09/22 03:05:45;;;;;;;;;24.80;21.80;;;;;14.22;62.32;99278.06;6187823;28;96678;-63
2022/09/22 03:08:48;;;;;;;;;23.80;21.00;;;;;14.21;62.38;99282.66;6189138;28;96396;-60
2022/09/22 03:11:52;;;;;;;;;27.80;24.00;;;;;14.17;62.32;99280.66;6189757;28;97174;-63
2022/09/22 03:14:55;;;;;;;;;24.40;22.40;;;;;14.17;62.12;99286.09;6177946;28;98057;-61
2022/09/22 03:17:59;;;;;;;;;27.50;23.50;;;;;14.10;62.29;99269.94;6178886;28;96459;-61
2022/09/22 03:21:04;;;;;;;;;23.20;21.20;;;;;14.11;62.27;99278.88;6154593;28;98557;-68
2022/09/22 03:24:08;;;;;;;;;22.20;20.80;;;;;14.11;62.51;99282.44;6175876;28;96562;-69
2022/09/22 03:27:11;;;;;;;;;24.00;22.00;;;;;14.15;62.62;99277.34;6186806;28;97676;-62
2022/09/22 03:30:14;;;;;;;;;24.60;21.60;;;;;14.24;62.37;99287.63;6187621;28;96463;-70
2022/09/22 03:33:18;;;;;;;;;24.00;21.00;;;;;14.24;62.45;99289.50;6183966;28;97218;-60
2022/09/22 03:36:22;;;;;;;;;20.00;19.00;;;;;14.18;62.24;99291.25;6187541;28;96370;-64
2022/09/22 03:39:26;;;;;;;;;21.00;19.00;;;;;14.22;62.28;99288.91;6186663;28;96540;-70
2022/09/22 03:42:29;;;;;;;;;19.00;18.00;;;;;14.27;62.08;99289.84;6181868;28;96668;-60
2022/09/22 03:45:33;;;;;;;;;20.00;18.00;;;;;14.27;62.12;99289.00;6185695;28;98551;-68
2022/09/22 03:48:37;;;;;;;;;21.80;20.40;;;;;14.29;61.85;99289.63;6184197;28;97019;-62
2022/09/22 03:51:48;;;;;;;;;21.40;19.00;;;;;14.28;61.92;99288.78;6185774;28;96993;-62
2022/09/22 03:54:53;;;;;;;;;21.50;18.75;;;;;14.34;61.78;99287.03;6182461;28;96841;-67
2022/09/22 03:57:56;;;;;;;;;18.20;17.00;;;;;14.39;61.47;99280.91;6168716;28;96742;-64
2022/09/22 04:00:59;;;;;;;;;16.00;15.25;;;;;14.43;61.37;99284.81;6185012;28;96381;-63
2022/09/22 04:04:03;;;;;;;;;24.25;21.25;;;;;14.52;61.32;99284.19;6188418;28;96603;-69
2022/09/22 04:07:08;;;;;;;;;21.67;18.00;;;;;14.50;61.14;99290.94;6188363;28;96444;-63
2022/09/22 04:10:12;;;;;;;;;21.00;17.00;;;;;14.59;60.81;99284.09;6195723;28;96654;-62
2022/09/22 04:13:15;;;;;;;;;18.20;16.60;;;;;14.49;60.94;99284.69;6186617;28;96879;-63
2022/09/22 04:16:18;;;;;;;;;23.20;20.20;;;;;14.46;60.69;99284.34;6187745;28;96528;-59
2022/09/22 04:19:22;;;;;;;;;23.00;21.00;;;;;14.45;60.75;99278.09;6186657;28;96751;-63
2022/09/22 04:22:27;;;;;;;;;17.40;16.40;;;;;14.47;61.23;99284.09;6178710;28;97554;-63
2022/09/22 04:25:31;;;;;;;;;22.00;20.00;;;;;14.45;60.67;99283.53;6172581;28;96290;-63
2022/09/22 04:28:34;;;;;;;;;22.20;18.00;;;;;14.49;60.83;99278.44;6173344;28;96377;-63
2022/09/22 04:31:40;;;;;;;;;20.00;18.00;;;;;14.49;60.65;99286.56;6188294;28;96334;-68
2022/09/22 04:34:43;;;;;;;;;20.00;18.00;;;;;14.42;60.52;99278.56;6183543;28;99233;-61
2022/09/22 04:37:48;;;;;;;;;23.40;20.00;;;;;14.49;60.24;99281.16;6187680;28;96584;-63
2022/09/22 04:40:53;;;;;;;;;22.00;20.00;;;;;14.57;60.22;99283.50;6186406;28;96442;-62
2022/09/22 04:43:56;;;;;;;;;20.75;17.75;;;;;14.54;60.32;99284.81;6186862;28;98485;-62
2022/09/22 04:46:59;;;;;;;;;17.60;16.60;;;;;14.57;60.30;99291.63;6183694;28;96458;-60
2022/09/22 04:50:03;;;;;;;;;19.00;17.00;;;;;14.60;60.08;99294.72;6182682;28;96918;-61
2022/09/22 04:53:08;;;;;;;;;17.40;15.60;;;;;14.62;60.18;99300.72;6182592;28;98776;-61
2022/09/22 04:56:11;;;;;;;;;15.50;13.50;;;;;14.57;59.83;99297.06;6182060;28;97170;-64
2022/09/22 04:59:15;;;;;;;;;20.00;17.00;;;;;14.61;59.88;99298.25;6184690;28;98554;-70
2022/09/22 05:02:18;;;;;;;;;19.40;17.00;;;;;14.64;59.79;99284.19;6166679;28;98427;-60
2022/09/22 05:05:23;;;;;;;;;19.25;17.00;;;;;14.62;59.66;99284.44;6182261;28;97910;-64
2022/09/22 05:08:29;;;;;;;;;20.40;16.60;;;;;14.61;59.58;99287.41;6179661;28;96054;-63
2022/09/22 05:11:33;;;;;;;;;19.00;18.40;;;;;14.61;59.42;99287.41;6186206;28;96287;-62
2022/09/22 05:14:36;;;;;;;;;21.40;19.00;;;;;14.60;59.49;99286.56;6184526;28;96702;-62
2022/09/22 05:17:45;;;;;;;;;19.80;19.00;;;;;14.60;59.38;99292.00;6181852;28;98383;-63
2022/09/22 05:20:48;;;;;;;;;23.80;22.00;;;;;14.62;59.40;99295.28;6182945;28;96823;-64
2022/09/22 05:23:54;;;;;;;;;20.00;17.00;;;;;14.64;59.27;99297.78;6184290;28;97689;-62
2022/09/22 05:26:59;;;;;;;;;17.80;16.80;;;;;14.64;59.16;99290.47;6185701;28;96495;-63
2022/09/22 05:30:02;;;;;;;;;18.00;18.00;;;;;14.64;58.91;99297.78;6185165;28;96409;-65
2022/09/22 05:33:05;;;;;;;;;15.60;13.60;;;;;14.61;58.64;99304.47;6184549;28;97002;-64
2022/09/22 05:36:09;;;;;;;;;19.00;16.75;;;;;14.60;58.87;99302.03;6183180;28;98365;-64
2022/09/22 05:39:13;;;;;;;;;13.60;12.60;;;;;14.55;58.78;99310.88;6184924;28;96499;-62
2022/09/22 05:42:17;;;;;;;;;13.80;13.80;;;;;14.59;58.79;99319.38;6185439;28;96534;-63
2022/09/22 05:45:21;;;;;;;;;18.00;16.00;;;;;14.67;58.82;99306.25;6188551;28;96366;-70
2022/09/22 05:48:25;;;;;;;;;17.00;16.00;;;;;14.71;58.78;99314.75;6192006;28;96551;-60
2022/09/22 05:51:33;;;;;;;;;15.75;14.00;;;;;14.77;58.19;99311.06;6187340;28;96338;-65
2022/09/22 05:54:37;;;;;;;;;14.00;13.00;;;;;14.77;57.97;99318.38;6186256;28;97102;-61
2022/09/22 05:57:42;;;;;;;;;16.60;15.40;;;;;14.85;57.86;99315.31;6184837;28;98369;-60
2022/09/22 06:00:45;;;;;;;;;14.00;14.00;;;;;14.99;57.61;99311.28;6185126;28;96371;-62
2022/09/22 06:03:49;;;;;;;;;16.00;14.40;;;;;15.19;57.45;99322.56;6187050;28;96628;-64
2022/09/22 06:06:52;;;;;;;;;16.25;13.00;;;;;15.31;56.74;99317.91;6187078;28;96349;-70
2022/09/22 06:09:56;;;;;;;;;13.80;12.00;;;;;15.37;56.46;99330.53;6192626;28;97644;-61
2022/09/22 06:13:02;;;;;;;;;11.80;10.80;;;;;15.43;56.06;99323.31;6192312;28;98536;-63
2022/09/22 06:16:06;;;;;;;;;12.00;12.00;;;;;15.46;55.98;99323.63;6184883;28;96640;-64
2022/09/22 06:19:09;;;;;;;;;17.80;14.40;;;;;15.37;55.96;99329.69;6185934;28;96742;-70
2022/09/22 06:22:13;;;;;;;;;13.50;13.00;;;;;15.49;55.67;99331.28;6184711;28;96840;-70
2022/09/22 06:25:18;;;;;;;;;13.40;11.00;;;;;15.55;55.69;99330.34;6186022;28;96889;-71
2022/09/22 06:28:21;;;;;;;;;12.60;11.00;;;;;15.63;55.44;99329.16;6185896;28;97587;-62
2022/09/22 06:31:25;;;;;;;;;12.00;11.00;;;;;15.61;54.96;99334.00;6194050;28;96246;-59
2022/09/22 06:34:28;;;;;;;;;12.00;11.00;;;;;15.46;54.80;99339.94;6190788;28;96618;-60
2022/09/22 06:37:32;;;;;;;;;13.00;12.00;;;;;15.38;55.14;99332.19;6185943;28;96929;-65
2022/09/22 06:40:36;;;;;;;;;13.00;11.00;;;;;15.44;54.87;99330.41;6201002;28;97355;-67
2022/09/22 06:43:41;;;;;;;;;11.50;11.25;;;;;15.66;54.89;99342.25;6186299;28;96341;-60
2022/09/22 06:46:44;;;;;;;;;12.00;9.00;;;;;15.97;53.62;99335.47;6184118;28;96718;-71
2022/09/22 06:49:47;;;;;;;;;13.20;11.00;;;;;16.23;53.18;99334.00;6188025;28;96221;-71
2022/09/22 06:52:51;;;;;;;;;13.00;12.00;;;;;16.53;52.71;99347.25;6189679;28;96317;-58
2022/09/22 06:55:57;;;;;;;;;12.00;11.00;;;;;16.73;51.65;99344.88;6190634;28;97041;-69
2022/09/22 06:59:11;;;;;;;;;9.80;9.00;;;;;16.88;51.41;99339.63;6190137;28;96989;-61
2022/09/22 07:02:15;;;;;;;;;8.80;8.00;;;;;16.89;50.94;99352.19;6189041;28;98056;-62
2022/09/22 07:05:19;;;;;;;;;10.60;9.00;;;;;16.78;50.90;99347.66;6189226;28;96433;-67
2022/09/22 07:08:24;;;;;;;;;9.60;8.00;;;;;16.73;50.58;99350.31;6179495;28;96737;-62
2022/09/22 07:11:29;;;;;;;;;9.60;9.00;;;;;16.65;50.86;99354.28;6190029;28;97020;-63
2022/09/22 07:14:32;;;;;;;;;11.60;9.60;;;;;16.64;51.07;99358.09;6183893;28;96450;-61
2022/09/22 07:17:36;;;;;;;;;12.00;9.00;;;;;16.63;51.29;99353.72;6183091;28;97300;-59
2022/09/22 07:20:39;;;;;;;;;12.60;12.00;;;;;16.53;51.11;99349.97;6184126;28;96258;-61
2022/09/22 07:23:43;;;;;;;;;12.40;11.40;;;;;16.49;51.10;99349.66;6192857;28;96369;-64
2022/09/22 07:26:48;;;;;;;;;11.00;10.00;;;;;16.63;51.00;99353.72;6187189;28;99980;-70
2022/09/22 07:29:53;;;;;;;;;9.00;8.00;;;;;16.76;51.24;99358.00;6189301;28;96585;-64
2022/09/22 07:32:56;;;;;;;;;10.00;8.00;;;;;16.88;50.57;99359.53;6187742;28;96529;-70
2022/09/22 07:36:03;;;;;;;;;10.00;9.00;;;;;16.98;51.93;99342.50;6188245;28;96713;-71
2022/09/22 07:39:09;;;;;;;;;9.00;8.00;;;;;17.16;49.60;99322.28;6191741;28;96234;-71
2022/09/22 07:42:15;;;;;;;;;9.00;9.00;;;;;17.74;48.21;99344.25;6203057;28;96398;-68
2022/09/22 07:45:20;;;;;;;;;11.60;10.00;;;;;18.38;47.58;99348.91;6189441;28;96836;-59
2022/09/22 07:48:45;;;;;;;;;8.80;8.20;;;;;18.66;46.33;99339.63;6188635;28;96260;-60
2022/09/22 07:51:53;;;;;;;;;10.00;10.00;;;;;18.96;45.34;99353.47;6188091;28;96491;-60
2022/09/22 07:54:57;;;;;;;;;10.25;9.00;;;;;18.95;44.93;99354.53;6187686;28;96659;-63
2022/09/22 07:58:02;;;;;;;;;10.00;9.00;;;;;18.91;45.64;99351.50;6200461;28;96247;-61
2022/09/22 08:01:06;;;;;;;;;9.80;8.00;;;;;18.77;45.52;99352.22;6187119;28;96753;-62
2022/09/22 08:04:15;;;;;;;;;10.00;9.00;;;;;18.72;45.91;99350.28;6169906;28;97324;-61
2022/09/22 08:07:18;;;;;;;;;10.00;8.25;;;;;18.74;45.83;99350.84;6188389;28;96302;-61
2022/09/22 08:10:22;;;;;;;;;12.60;9.60;;;;;18.75;46.34;99357.16;6185657;28;99042;-58
2022/09/22 08:13:27;;;;;;;;;8.00;7.60;;;;;18.82;46.09;99361.28;6189864;28;98435;-69
2022/09/22 08:16:32;;;;;;;;;10.00;9.00;;;;;19.17;45.54;99363.38;6197123;28;96413;-60
2022/09/22 08:19:36;;;;;;;;;9.50;9.00;;;;;20.10;43.51;99353.28;6188908;28;96243;-65
2022/09/22 08:22:40;;;;;;;;;9.00;8.00;;;;;20.20;43.12;99363.44;6188192;28;96909;-60
2022/09/22 08:25:44;;;;;;;;;10.00;9.00;;;;;20.05;42.81;99366.16;6184510;28;98502;-59
2022/09/22 08:28:51;;;;;;;;;9.00;8.00;;;;;19.77;42.09;99365.56;6188381;28;96516;-72
2022/09/22 08:31:55;;;;;;;;;7.60;7.00;;;;;19.76;43.65;99363.09;6186903;28;97280;-69
2022/09/22 08:34:58;;;;;;;;;8.75;8.75;;;;;19.74;43.63;99366.09;6186464;28;96751;-65
2022/09/22 08:38:02;;;;;;;;;11.20;10.20;;;;;19.68;43.58;99367.19;6174126;28;96312;-63
2022/09/22 08:41:16;;;;;;;;;9.40;8.60;;;;;19.58;43.58;99363.59;6195280;28;96335;-61
2022/09/22 08:44:25;;;;;;;;;6.25;6.25;;;;;19.46;43.92;99353.69;6198203;28;96237;-60
2022/09/22 08:54:20;;;;;;;;;8.60;8.60;;;;;19.39;43.93;99364.06;6187490;28;96477;-69
2022/09/22 08:57:55;;;;;;;;;7.00;7.00;;;;;19.46;43.68;99355.63;6201423;28;96133;-64
2022/09/22 09:01:08;;;;;;;;;7.00;6.00;;;;;19.59;43.78;99355.13;6194081;28;96489;-65
2022/09/22 09:04:59;;;;;;;;;8.00;6.00;;;;;19.63;43.66;99352.66;6176979;28;96343;-61
2022/09/22 09:08:23;;;;;;;;;7.80;7.00;;;;;19.80;43.83;99348.59;6174789;28;96240;-63
2022/09/22 09:11:46;;;;;;;;;12.00;10.25;;;;;20.09;42.93;99340.69;6187867;28;96565;-63
2022/09/22 09:15:05;;;;;;;;;9.00;7.00;;;;;20.66;42.03;99334.97;6185261;28;96664;-60
2022/09/22 09:18:16;;;;;;;;;7.25;7.00;;;;;21.52;39.87;99320.97;6197134;28;97536;-70
2022/09/22 09:21:22;;;;;;;;;10.25;8.25;;;;;22.61;39.03;99334.50;6191915;28;96413;-64
2022/09/22 09:24:31;;;;;;;;;9.00;8.00;;;;;23.85;36.26;99332.47;6186996;28;96192;-62
2022/09/22 09:28:00;;;;;;;;;9.60;7.80;;;;;24.85;33.93;99331.13;6185735;28;96760;-70
2022/09/22 09:31:12;;;;;;;;;9.00;8.00;;;;;25.70;32.66;99336.06;6187310;28;97154;-62
2022/09/22 09:34:20;;;;;;;;;6.25;6.00;;;;;26.41;31.07;99331.63;6181738;28;96871;-66
2022/09/22 09:37:24;;;;;;;;;7.00;7.00;;;;;27.30;29.74;99337.81;6184684;28;96591;-71
2022/09/22 09:40:28;;;;;;;;;5.60;5.60;;;;;26.50;29.46;99338.84;6186929;28;96544;-62
2022/09/22 09:43:32;;;;;;;;;6.00;6.00;;;;;26.88;29.76;99338.47;6186884;28;96636;-62
2022/09/22 09:46:51;;;;;;;;;5.60;5.60;;;;;27.75;27.85;99327.34;6187057;28;96444;-61
2022/09/22 09:49:56;;;;;;;;;5.00;5.00;;;;;27.27;29.13;99324.59;6185510;28;96629;-66
2022/09/22 09:53:02;;;;;;;;;5.00;5.00;;;;;26.79;28.83;99329.25;6186486;28;97039;-64
2022/09/22 09:56:22;;;;;;;;;5.50;5.25;;;;;26.65;28.91;99332.91;6185028;28;96481;-69
2022/09/22 10:02:50;;;;;;;;;4.00;4.00;;;;;28.17;27.83;99322.97;6186295;28;96455;-64
2022/09/22 10:06:01;;;;;;;;;5.00;4.00;;;;;27.50;27.50;99314.28;6185501;28;96439;-61
2022/09/22 10:09:04;;;;;;;;;4.40;4.00;;;;;26.91;28.30;99322.03;6186651;28;96441;-62
2022/09/22 10:12:22;;;;;;;;;4.00;4.00;;;;;26.13;28.99;99322.63;6186246;28;96587;-61
2022/09/22 10:15:26;;;;;;;;;4.00;3.40;;;;;25.65;30.38;99322.34;6186159;28;96560;-64
2022/09/22 10:18:35;;;;;;;;;4.50;4.00;;;;;24.98;31.38;99327.56;6184639;28;98605;-71
2022/09/22 10:21:39;;;;;;;;;4.60;3.60;;;;;24.45;32.96;99332.66;6186479;28;96186;-61
2022/09/22 10:24:53;;;;;;;;;4.50;3.75;;;;;23.98;33.54;99330.91;6190440;28;96683;-65
2022/09/22 10:28:03;;;;;;;;;3.00;3.00;;;;;23.57;34.75;99331.50;6191039;28;97676;-69
2022/09/22 10:31:06;;;;;;;;;4.00;4.00;;;;;23.27;35.68;99318.09;6188729;28;96998;-64
2022/09/22 10:34:30;;;;;;;;;3.00;3.00;;;;;22.89;37.11;99328.19;6190037;28;96418;-58
2022/09/22 10:37:35;;;;;;;;;4.00;4.00;;;;;22.57;37.81;99322.44;6187225;28;96966;-62
2022/09/22 10:40:41;;;;;;;;;5.25;5.00;;;;;22.14;37.92;99324.19;6188046;28;96795;-61
2022/09/22 10:43:49;;;;;;;;;5.00;5.00;;;;;21.86;39.01;99322.97;6190309;28;96340;-70
2022/09/22 10:47:12;;;;;;;;;5.00;5.00;;;;;21.54;39.31;99313.31;6190013;28;96248;-71
2022/09/22 10:50:31;;;;;;;;;5.00;4.00;;;;;22.57;37.73;99309.53;6189779;28;96175;-65
2022/09/22 10:53:51;;;;;;;;;6.00;5.00;;;;;23.63;35.76;99307.47;6187406;28;96279;-58
2022/09/22 10:57:07;;;;;;;;;5.00;4.00;;;;;24.57;34.54;99299.94;6185860;28;96777;-61
2022/09/22 11:00:15;;;;;;;;;5.00;4.00;;;;;24.77;33.73;99302.31;6187770;28;97236;-60
2022/09/22 11:03:31;;;;;;;;;5.40;5.00;;;;;24.87;33.58;99306.84;6193174;28;96492;-69
2022/09/22 11:14:07;;;;;;;;;3.00;3.00;;;;;24.65;31.67;99310.25;6187702;28;96224;-70
2022/09/22 11:17:25;;;;;;;;;2.50;2.50;;;;;23.89;34.76;99318.94;6179969;28;96688;-63
2022/09/22 11:20:35;;;;;;;;;2.00;2.00;;;;;23.04;36.92;99325.25;6184117;28;96369;-64
2022/09/22 11:24:00;;;;;;;;;2.00;2.00;;;;;22.22;38.52;99329.88;6169645;28;96734;-74
2022/09/22 11:27:14;;;;;;;;;1.00;1.00;;;;;21.38;39.78;99322.72;6190681;28;96269;-63
2022/09/22 11:30:20;;;;;;;;;3.00;2.20;;;;;20.76;41.17;99320.44;6167285;28;96529;-67
2022/09/22 11:34:18;;;;;;;;;2.00;2.00;;;;;20.29;42.73;99307.03;6168706;28;96890;-59
2022/09/22 11:37:36;;;;;;;;;4.00;3.00;;;;;19.92;43.11;99312.78;6115727;28;97655;-60
2022/09/22 11:40:59;;;;;;;;;2.75;2.75;;;;;19.65;43.70;99306.69;6114327;28;96714;-61
2022/09/22 11:44:27;;;;;;;;;3.00;2.00;;;;;19.48;44.73;99304.22;6114558;28;96314;-68
2022/09/22 11:47:48;;;;;;;;;3.00;2.00;;;;;19.31;45.11;99303.56;6116116;28;96383;-62
2022/09/22 11:51:18;;;;;;;;;2.40;2.40;;;;;19.30;45.47;99304.69;6091764;28;98488;-70
2022/09/22 11:54:35;;;;;;;;;3.40;3.00;;;;;19.56;46.34;99300.13;6136388;28;96168;-67
2022/09/22 11:57:44;;;;;;;;;3.00;2.00;;;;;20.46;45.10;99302.13;6142551;28;97202;-62
2022/09/22 12:00:53;;;;;;;;;4.00;4.00;;;;;21.10;43.84;99290.44;6134707;28;96935;-69
2022/09/22 12:04:04;;;;;;;;;4.00;3.00;;;;;22.17;42.35;99309.88;6137424;28;96651;-63
2022/09/22 12:07:16;;;;;;;;;5.00;4.00;;;;;22.81;40.73;99299.41;6146806;28;96468;-62
2022/09/22 12:10:23;;;;;;;;;2.00;2.00;;;;;22.96;39.85;99305.84;6189513;28;97142;-58
2022/09/22 12:13:28;;;;;;;;;3.40;3.40;;;;;22.81;39.63;99299.41;6194390;28;96289;-71
2022/09/22 12:16:40;;;;;;;;;3.00;3.00;;;;;22.71;39.68;99296.75;6189113;28;96256;-69
2022/09/22 12:19:55;;;;;;;;;4.40;4.00;;;;;22.54;39.96;99295.53;6197667;28;96261;-67
2022/09/22 12:23:19;;;;;;;;;4.80;4.80;;;;;22.25;40.38;99298.25;6184166;28;96498;-63
2022/09/22 12:26:28;;;;;;;;;3.00;3.00;;;;;22.16;41.12;99291.75;6169532;28;98432;-65
2022/09/22 12:29:31;;;;;;;;;3.60;3.00;;;;;22.00;41.42;99291.88;6188367;28;96296;-64
2022/09/22 12:32:38;;;;;;;;;3.75;3.00;;;;;21.77;42.02;99289.00;6180903;28;96571;-64
2022/09/22 12:35:42;;;;;;;;;3.00;3.00;;;;;21.89;41.46;99289.47;6189951;28;96700;-63
2022/09/22 12:38:46;;;;;;;;;5.00;4.00;;;;;21.75;41.18;99278.31;6188673;28;96818;-62
2022/09/22 12:41:56;;;;;;;;;4.60;3.60;;;;;21.45;40.75;99273.03;6188022;28;97373;-60
2022/09/22 12:45:08;;;;;;;;;3.00;3.00;;;;;21.37;41.94;99279.09;6188085;28;96664;-59
2022/09/22 12:48:17;;;;;;;;;2.80;2.80;;;;;21.26;41.59;99272.84;6188017;28;96282;-70
2022/09/22 12:51:32;;;;;;;;;3.25;3.00;;;;;21.11;42.04;99272.91;6190403;28;96471;-62
2022/09/22 12:54:40;;;;;;;;;3.00;2.00;;;;;20.90;41.92;99266.69;6187375;28;96438;-64
2022/09/22 12:57:47;;;;;;;;;3.00;3.00;;;;;20.72;42.24;99267.28;6187451;28;96563;-67
2022/09/22 13:00:53;;;;;;;;;2.00;2.00;;;;;20.69;42.33;99271.41;6202243;28;96907;-70
2022/09/22 13:04:12;;;;;;;;;2.00;2.00;;;;;20.63;41.70;99274.41;6188289;28;96414;-65
2022/09/22 13:07:35;;;;;;;;;3.00;3.00;;;;;20.61;41.92;99263.75;6187766;28;96323;-65
2022/09/22 13:10:49;;;;;;;;;3.00;3.00;;;;;20.73;41.60;99257.94;6193903;28;96907;-65
2022/09/22 13:13:53;;;;;;;;;3.00;2.40;;;;;21.07;40.54;99252.59;6183300;28;98925;-65
2022/09/22 13:16:56;;;;;;;;;3.00;3.00;;;;;21.43;39.51;99256.84;6178461;28;96230;-60
2022/09/22 13:20:13;;;;;;;;;3.60;3.00;;;;;21.68;39.17;99269.59;6174110;28;96252;-62
2022/09/22 13:23:16;;;;;;;;;2.00;2.00;;;;;22.10;38.91;99260.78;6177233;28;96920;-69
2022/09/22 13:26:22;;;;;;;;;2.20;2.00;;;;;22.21;36.63;99256.00;6187145;28;96255;-63
2022/09/22 13:29:25;;;;;;;;;2.20;2.20;;;;;22.48;37.76;99261.78;6185704;28;97870;-67
2022/09/22 13:32:28;;;;;;;;;3.00;2.00;;;;;22.43;36.02;99259.09;6185856;28;96443;-60
2022/09/22 13:35:37;;;;;;;;;3.00;3.00;;;;;22.17;36.39;99254.94;6185522;28;96570;-61
2022/09/22 13:38:43;;;;;;;;;1.00;1.00;;;;;21.76;37.06;99227.81;6177818;28;96740;-61
2022/09/22 13:41:51;;;;;;;;;2.00;2.00;;;;;21.54;37.71;99252.13;6195742;28;96419;-62
2022/09/22 13:45:00;;;;;;;;;4.00;4.00;;;;;21.33;38.77;99259.66;6180498;28;96726;-62
2022/09/22 13:48:07;;;;;;;;;3.00;3.00;;;;;20.82;39.61;99259.00;6179458;28;97015;-67
2022/09/22 13:51:16;;;;;;;;;3.00;3.00;;;;;20.50;40.78;99253.09;6184693;28;96250;-64
2022/09/22 13:54:23;;;;;;;;;3.00;3.00;;;;;20.08;41.48;99246.00;6184107;28;96913;-60
2022/09/22 13:57:30;;;;;;;;;2.40;2.00;;;;;19.73;42.61;99240.53;6194856;28;96854;-70
2022/09/22 14:00:41;;;;;;;;;3.00;3.00;;;;;19.74;42.98;99253.91;6194917;28;97171;-59
2022/09/22 14:04:22;;;;;;;;;3.00;3.00;;;;;19.44;43.64;99248.44;6187970;28;96683;-62
2022/09/22 14:07:29;;;;;;;;;2.50;2.50;;;;;19.31;43.92;99238.78;6187358;28;97245;-64
2022/09/22 14:10:34;;;;;;;;;2.00;2.00;;;;;18.95;44.81;99237.88;6192428;28;99570;-64
2022/09/22 14:13:43;;;;;;;;;3.40;3.40;;;;;18.86;46.06;99234.00;6196736;28;97125;-65
2022/09/22 14:16:49;;;;;;;;;6.00;5.50;;;;;18.78;46.21;99233.69;6191103;28;96329;-63
2022/09/22 14:19:57;;;;;;;;;5.00;5.00;;;;;18.59;46.50;99233.31;6197403;28;98536;-69
2022/09/22 14:23:02;;;;;;;;;4.80;3.80;;;;;18.43;47.22;99229.66;6193125;28;96486;-64
2022/09/22 14:26:23;;;;;;;;;5.00;5.00;;;;;18.36;48.10;99225.53;6176201;28;96987;-70
2022/09/22 14:29:28;;;;;;;;;5.20;5.00;;;;;18.42;48.45;99232.66;6184567;28;98400;-60
2022/09/22 14:32:36;;;;;;;;;5.00;5.00;;;;;18.71;48.44;99239.41;6193315;28;97293;-71
2022/09/22 14:35:40;;;;;;;;;7.25;5.25;;;;;18.93;47.64;99240.03;6190351;28;96341;-65
2022/09/22 14:38:45;;;;;;;;;4.60;4.00;;;;;18.94;46.51;99244.44;6187393;28;96534;-69
2022/09/22 14:42:16;;;;;;;;;3.00;3.00;;;;;18.95;47.11;99250.72;6187929;28;96349;-67
2022/09/22 14:45:21;;;;;;;;;4.00;4.00;;;;;18.83;47.62;99252.84;6184308;28;96603;-72
2022/09/22 14:48:29;;;;;;;;;4.00;3.00;;;;;18.50;48.53;99249.38;6188023;28;96983;-65
2022/09/22 14:51:33;;;;;;;;;4.00;4.00;;;;;18.36;48.90;99247.38;6186004;28;98463;-64